Time;durP1;ratioP1;P1;durP2;ratioP2;P2;SDS_P1;SDS_P2;PMS_P1;PMS_P2;Temp;Humidity;BMP_temperature;BMP_pressure;BME280_temperature;BME280_humidity;BME280_pressure;Samples;Min_cycle;Max_cycle;Signal;HPM_P1;HPM_P2
2021/12/25 00:00:22;;;;;;;;;;;22.00;47.70;;;;;;1618280;73;783;-63
2021/12/25 00:02:24;;;;;;;;;;;22.00;47.70;;;;;;1618339;73;1102;-61
2021/12/25 00:04:26;;;;;;;;;;;21.90;47.70;;;;;;1618303;73;1908;-62
2021/12/25 00:06:28;;;;;;;;;;;22.00;47.70;;;;;;1618247;73;722;-59
2021/12/25 00:08:31;;;;;;;;;;;22.00;47.70;;;;;;1618393;73;776;-62
2021/12/25 00:10:33;;;;;;;;;;;21.90;47.70;;;;;;1618189;73;693;-64
2021/12/25 00:12:35;;;;;;;;;;;22.00;47.70;;;;;;1618322;73;1115;-62
2021/12/25 00:14:37;;;;;;;;;;;21.90;47.70;;;;;;1618449;73;780;-62
2021/12/25 00:16:39;;;;;;;;;;;22.00;47.70;;;;;;1618122;73;914;-61
2021/12/25 00:18:41;;;;;;;;;;;21.90;47.70;;;;;;1618297;73;784;-63
2021/12/25 00:20:43;;;;;;;;;;;21.90;47.80;;;;;;1618300;73;774;-62
2021/12/25 00:22:45;;;;;;;;;;;22.00;47.70;;;;;;1618152;73;1122;-63
2021/12/25 00:24:47;;;;;;;;;;;21.90;47.70;;;;;;1618343;73;1932;-62
2021/12/25 00:27:05;;;;;;;;;;;21.90;47.70;;;;;;1618078;73;695;-63
2021/12/25 00:29:05;;;;;;;;;;;21.90;47.70;;;;;;1616154;73;1462;-62
2021/12/25 00:33:35;;;;;;;;;;;21.90;47.70;;;;;;1618406;73;1142;-63
2021/12/25 00:35:23;;;;;;;;;;;21.90;47.70;;;;;;1613110;73;1590;-62
2021/12/25 00:37:26;;;;;;;;;;;21.90;47.80;;;;;;1618313;73;2056;-62
2021/12/25 00:39:29;;;;;;;;;;;21.90;47.80;;;;;;1618403;73;726;-62
2021/12/25 00:41:33;;;;;;;;;;;21.90;47.80;;;;;;1618344;73;773;-63
2021/12/25 00:43:34;;;;;;;;;;;21.90;47.80;;;;;;1618290;73;1142;-62
2021/12/25 00:45:36;;;;;;;;;;;21.90;47.70;;;;;;1618329;73;1957;-63
2021/12/25 00:47:38;;;;;;;;;;;21.90;47.80;;;;;;1591812;75;984;-62
2021/12/25 00:49:40;;;;;;;;;;;21.90;47.80;;;;;;1618467;73;806;-63
2021/12/25 00:51:42;;;;;;;;;;;21.90;47.80;;;;;;1618496;73;725;-63
2021/12/25 00:53:44;;;;;;;;;;;21.90;47.80;;;;;;1618391;73;1095;-63
2021/12/25 00:55:46;;;;;;;;;;;21.90;47.70;;;;;;1618414;73;810;-62
2021/12/25 00:57:47;;;;;;;;;;;21.90;47.80;;;;;;1618353;73;718;-62
2021/12/25 00:59:49;;;;;;;;;;;21.90;47.80;;;;;;1618502;73;712;-62
2021/12/25 01:01:51;;;;;;;;;;;21.90;47.70;;;;;;1618329;73;729;-62
2021/12/25 01:03:53;;;;;;;;;;;21.90;47.70;;;;;;1618317;73;1087;-62
2021/12/25 01:05:55;;;;;;;;;;;21.90;47.70;;;;;;1618289;73;1933;-63
2021/12/25 01:07:57;;;;;;;;;;;21.90;47.80;;;;;;1618404;73;637;-63
2021/12/25 01:10:02;;;;;;;;;;;21.90;47.80;;;;;;1618422;73;726;-63
2021/12/25 01:12:03;;;;;;;;;;;21.90;47.80;;;;;;1618084;73;1665;-62
2021/12/25 01:14:19;;;;;;;;;;;21.90;47.80;;;;;;1618220;73;1067;-62
2021/12/25 01:18:57;;;;;;;;;;;21.90;47.80;;;;;;1618225;73;873;-62
2021/12/25 01:29:28;;;;;;;;;;;21.90;47.80;;;;;;1618274;73;851;-62
2021/12/25 01:31:30;;;;;;;;;;;21.90;47.80;;;;;;1616711;73;1643;-63
2021/12/25 01:38:03;;;;;;;;;;;21.90;47.90;;;;;;1618308;73;854;-63
2021/12/25 01:48:51;;;;;;;;;;;21.90;47.90;;;;;;1610717;73;1669;-62
2021/12/25 01:50:53;;;;;;;;;;;21.80;47.80;;;;;;1605281;74;785;-62
2021/12/25 01:52:55;;;;;;;;;;;21.80;47.80;;;;;;1605305;74;1130;-63
2021/12/25 01:55:02;;;;;;;;;;;21.90;48.00;;;;;;1605440;74;734;-60
2021/12/25 01:57:01;;;;;;;;;;;21.90;48.00;;;;;;1604078;74;1448;-62
2021/12/25 01:59:03;;;;;;;;;;;21.80;47.80;;;;;;1599639;73;739;-62
2021/12/25 02:01:05;;;;;;;;;;;21.80;47.80;;;;;;1599870;73;765;-62
2021/12/25 02:03:08;;;;;;;;;;;21.90;47.90;;;;;;1591734;75;1155;-62
2021/12/25 02:05:10;;;;;;;;;;;21.80;47.80;;;;;;1592125;75;1925;-62
2021/12/25 02:07:12;;;;;;;;;;;21.80;47.80;;;;;;1592072;75;758;-62
2021/12/25 02:09:14;;;;;;;;;;;21.80;47.80;;;;;;1592239;74;768;-62
2021/12/25 02:11:15;;;;;;;;;;;21.80;47.80;;;;;;1592181;75;760;-62
2021/12/25 02:13:17;;;;;;;;;;;21.80;47.80;;;;;;1592300;75;1109;-63
2021/12/25 02:15:22;;;;;;;;;;;21.90;47.80;;;;;;1610594;73;801;-62
2021/12/25 02:17:32;;;;;;;;;;;21.90;47.80;;;;;;1595066;73;1658;-62
2021/12/25 02:20:12;;;;;;;;;;;21.80;47.70;;;;;;1591118;74;1614;-62
2021/12/25 02:21:41;;;;;;;;;;;21.90;47.80;;;;;;1586347;75;1295;-62
2021/12/25 02:23:39;;;;;;;;;;;21.90;47.80;;;;;;1591723;74;1714;-62
2021/12/25 02:25:41;;;;;;;;;;;21.90;47.80;;;;;;1592133;75;1927;-62
2021/12/25 02:27:46;;;;;;;;;;;21.90;47.80;;;;;;1592123;75;818;-62
2021/12/25 02:29:48;;;;;;;;;;;21.80;47.80;;;;;;1592174;75;767;-65
2021/12/25 02:31:50;;;;;;;;;;;21.90;47.80;;;;;;1592295;75;724;-62
2021/12/25 02:33:52;;;;;;;;;;;21.80;47.70;;;;;;1592039;75;1128;-62
2021/12/25 02:35:54;;;;;;;;;;;21.90;47.80;;;;;;1592086;75;793;-62
2021/12/25 02:37:56;;;;;;;;;;;21.80;47.80;;;;;;1592083;74;766;-62
2021/12/25 02:39:58;;;;;;;;;;;21.80;47.80;;;;;;1592304;75;731;-62
2021/12/25 02:42:00;;;;;;;;;;;21.90;47.90;;;;;;1592305;75;782;-62
2021/12/25 02:44:02;;;;;;;;;;;21.80;47.80;;;;;;1592023;75;1092;-62
2021/12/25 02:46:05;;;;;;;;;;;21.80;47.70;;;;;;1592127;75;1937;-62
2021/12/25 02:48:09;;;;;;;;;;;21.80;47.80;;;;;;1592023;75;783;-62
2021/12/25 02:50:11;;;;;;;;;;;21.80;47.80;;;;;;1592002;74;1895;-62
2021/12/25 02:52:13;;;;;;;;;;;21.90;47.90;;;;;;1592184;74;1112;-62
2021/12/25 02:54:15;;;;;;;;;;;21.80;47.70;;;;;;1591851;75;752;-64
2021/12/25 02:56:17;;;;;;;;;;;21.90;47.90;;;;;;1590905;75;739;-62
2021/12/25 02:58:19;;;;;;;;;;;21.80;47.70;;;;;;1590812;75;774;-63
2021/12/25 03:00:22;;;;;;;;;;;21.80;47.70;;;;;;1590977;75;696;-62
2021/12/25 03:02:24;;;;;;;;;;;21.90;47.90;;;;;;1590893;75;1112;-64
2021/12/25 03:04:26;;;;;;;;;;;21.80;47.70;;;;;;1590875;75;725;-62
2021/12/25 03:06:28;;;;;;;;;;;21.80;47.70;;;;;;1590833;75;1938;-62
2021/12/25 03:08:29;;;;;;;;;;;21.80;47.70;;;;;;1590926;75;690;-62
2021/12/25 03:10:33;;;;;;;;;;;21.80;47.70;;;;;;1590774;75;727;-62
2021/12/25 03:12:48;;;;;;;;;;;21.80;47.80;;;;;;1590716;75;1625;-62
2021/12/25 03:15:30;;;;;;;;;;;21.90;47.80;;;;;;1588419;75;1077;-65
2021/12/25 03:16:45;;;;;;;;;;;21.80;47.80;;;;;;1579783;75;1432;-62
2021/12/25 03:18:51;;;;;;;;;;;21.80;47.80;;;;;;1590921;75;713;-63
2021/12/25 03:20:52;;;;;;;;;;;21.80;47.80;;;;;;1590130;75;1644;-62
2021/12/25 03:22:54;;;;;;;;;;;21.80;47.80;;;;;;1590786;75;1139;-62
2021/12/25 03:24:56;;;;;;;;;;;21.80;47.80;;;;;;1590785;75;719;-65
2021/12/25 03:26:58;;;;;;;;;;;21.80;47.80;;;;;;1590809;75;1953;-63
2021/12/25 03:29:03;;;;;;;;;;;21.80;47.80;;;;;;1590813;75;750;-63
2021/12/25 03:31:05;;;;;;;;;;;21.80;47.70;;;;;;1590262;75;1668;-62
2021/12/25 03:33:08;;;;;;;;;;;21.80;47.80;;;;;;1590802;75;1903;-62
2021/12/25 03:35:10;;;;;;;;;;;21.80;47.80;;;;;;1590652;75;778;-62
2021/12/25 03:37:12;;;;;;;;;;;21.90;47.90;;;;;;1590878;75;806;-63
2021/12/25 03:39:15;;;;;;;;;;;21.80;47.80;;;;;;1590971;75;717;-62
2021/12/25 03:41:18;;;;;;;;;;;21.80;47.80;;;;;;1590779;75;726;-62
2021/12/25 03:43:20;;;;;;;;;;;21.80;47.80;;;;;;1590763;75;1160;-62
2021/12/25 03:45:22;;;;;;;;;;;21.80;47.80;;;;;;1590754;75;1913;-62
2021/12/25 03:47:29;;;;;;;;;;;21.90;47.90;;;;;;1590779;75;793;-62
2021/12/25 03:53:08;;;;;;;;;;;21.80;47.80;;;;;;1589940;75;1615;-63
2021/12/25 03:58:18;;;;;;;;;;;21.80;47.80;;;;;;1620426;73;1634;-62
2021/12/25 04:00:26;;;;;;;;;;;21.80;47.80;;;;;;1619683;73;1703;-62
2021/12/25 04:02:26;;;;;;;;;;;21.80;47.90;;;;;;1618676;73;1636;-62
2021/12/25 04:04:46;;;;;;;;;;;21.80;47.80;;;;;;1619647;73;1586;-62
2021/12/25 04:06:31;;;;;;;;;;;21.80;47.80;;;;;;1614957;73;1920;-62
2021/12/25 04:08:40;;;;;;;;;;;21.80;47.80;;;;;;1620637;73;680;-62
2021/12/25 04:10:39;;;;;;;;;;;21.90;48.00;;;;;;1619408;73;1632;-65
2021/12/25 04:12:41;;;;;;;;;;;21.90;48.00;;;;;;1620646;73;2101;-62
2021/12/25 04:14:42;;;;;;;;;;;21.80;47.80;;;;;;1620879;73;679;-63
2021/12/25 04:16:44;;;;;;;;;;;21.80;47.80;;;;;;1620827;73;727;-65
2021/12/25 04:18:46;;;;;;;;;;;21.80;47.80;;;;;;1620591;73;823;-62
2021/12/25 04:20:48;;;;;;;;;;;21.80;47.80;;;;;;1620858;73;712;-62
2021/12/25 04:24:59;;;;;;;;;;;21.80;47.80;;;;;;1620662;73;848;-63
2021/12/25 04:27:01;;;;;;;;;;;21.80;47.80;;;;;;1620653;73;1951;-64
2021/12/25 04:29:18;;;;;;;;;;;21.80;47.80;;;;;;1620628;73;890;-63
2021/12/25 04:31:27;;;;;;;;;;;21.90;48.00;;;;;;1617368;73;1678;-62
2021/12/25 04:42:45;;;;;;;;;;;21.80;47.90;;;;;;1607609;72;2076;-65
2021/12/25 05:05:38;;;;;;;;;;;21.70;48.00;;;;;;1560228;76;1911;-66
2021/12/25 05:07:40;;;;;;;;;;;21.80;48.10;;;;;;1560405;76;825;-66
2021/12/25 05:09:42;;;;;;;;;;;21.70;48.00;;;;;;1560320;76;570;-67
2021/12/25 05:11:44;;;;;;;;;;;21.80;48.00;;;;;;1560398;76;625;-66
2021/12/25 05:13:49;;;;;;;;;;;21.70;48.00;;;;;;1560325;76;1125;-66
2021/12/25 05:15:50;;;;;;;;;;;21.80;48.00;;;;;;1559992;76;1112;-65
2021/12/25 05:17:52;;;;;;;;;;;21.80;48.00;;;;;;1560262;76;792;-66
2021/12/25 05:19:55;;;;;;;;;;;21.80;47.90;;;;;;1560291;76;739;-66
2021/12/25 05:21:57;;;;;;;;;;;21.80;48.00;;;;;;1560208;76;773;-66
2021/12/25 05:23:59;;;;;;;;;;;21.80;47.90;;;;;;1560329;76;1193;-67
2021/12/25 05:26:01;;;;;;;;;;;21.80;47.90;;;;;;1560039;76;1901;-66
2021/12/25 05:28:03;;;;;;;;;;;21.80;47.90;;;;;;1560374;76;720;-66
2021/12/25 05:30:05;;;;;;;;;;;21.80;47.90;;;;;;1560357;76;712;-65
2021/12/25 05:32:07;;;;;;;;;;;21.80;47.90;;;;;;1560156;76;723;-66
2021/12/25 05:34:09;;;;;;;;;;;21.80;47.90;;;;;;1560320;75;1078;-67
2021/12/25 05:36:11;;;;;;;;;;;21.80;47.90;;;;;;1560259;76;717;-66
2021/12/25 05:38:14;;;;;;;;;;;21.80;47.90;;;;;;1560340;76;783;-66
2021/12/25 05:40:16;;;;;;;;;;;21.80;47.90;;;;;;1560243;76;710;-66
2021/12/25 05:42:20;;;;;;;;;;;21.80;47.90;;;;;;1560149;76;739;-66
2021/12/25 05:44:22;;;;;;;;;;;21.80;47.90;;;;;;1559589;76;1664;-65
2021/12/25 05:46:24;;;;;;;;;;;21.80;47.90;;;;;;1560175;76;1929;-65
2021/12/25 05:48:26;;;;;;;;;;;21.80;47.90;;;;;;1559701;76;687;-67
2021/12/25 05:50:28;;;;;;;;;;;21.80;47.90;;;;;;1558842;76;738;-66
2021/12/25 05:52:30;;;;;;;;;;;21.80;47.80;;;;;;1558601;76;798;-66
2021/12/25 05:54:32;;;;;;;;;;;21.80;47.90;;;;;;1558797;75;1117;-66
2021/12/25 05:56:34;;;;;;;;;;;21.80;47.90;;;;;;1558688;76;729;-66
2021/12/25 05:58:35;;;;;;;;;;;21.80;47.90;;;;;;1558731;76;721;-65
2021/12/25 06:00:37;;;;;;;;;;;21.80;47.90;;;;;;1558842;76;1058;-66
2021/12/25 06:02:39;;;;;;;;;;;21.80;47.90;;;;;;1558591;75;1132;-66
2021/12/25 06:04:41;;;;;;;;;;;21.90;48.10;;;;;;1558790;76;688;-66
2021/12/25 06:06:43;;;;;;;;;;;21.80;47.90;;;;;;1558658;76;1938;-67
2021/12/25 06:08:45;;;;;;;;;;;21.80;47.90;;;;;;1558618;76;929;-66
2021/12/25 06:10:47;;;;;;;;;;;21.80;47.90;;;;;;1558865;76;787;-65
2021/12/25 06:12:49;;;;;;;;;;;21.80;47.90;;;;;;1558686;75;1132;-66
2021/12/25 06:14:53;;;;;;;;;;;21.70;47.90;;;;;;1558737;76;761;-66
2021/12/25 06:16:56;;;;;;;;;;;21.80;47.90;;;;;;1558625;76;830;-66
2021/12/25 06:18:58;;;;;;;;;;;21.80;47.90;;;;;;1558582;76;768;-67
2021/12/25 06:21:00;;;;;;;;;;;21.80;47.90;;;;;;1558827;76;836;-66
2021/12/25 06:23:02;;;;;;;;;;;21.80;47.90;;;;;;1558771;75;1151;-66
2021/12/25 06:25:07;;;;;;;;;;;21.80;47.90;;;;;;1558583;76;766;-66
2021/12/25 06:27:08;;;;;;;;;;;21.80;47.90;;;;;;1558652;76;1912;-66
2021/12/25 06:29:14;;;;;;;;;;;21.80;47.90;;;;;;1558731;76;850;-66
2021/12/25 06:31:14;;;;;;;;;;;21.80;47.90;;;;;;1558639;76;1585;-66
2021/12/25 06:33:16;;;;;;;;;;;21.80;47.90;;;;;;1558763;75;1137;-66
2021/12/25 06:35:18;;;;;;;;;;;21.80;47.90;;;;;;1558512;76;795;-66
2021/12/25 06:37:20;;;;;;;;;;;21.80;47.90;;;;;;1558691;76;1071;-66
2021/12/25 06:39:22;;;;;;;;;;;21.80;48.00;;;;;;1558619;76;625;-66
2021/12/25 06:41:23;;;;;;;;;;;21.80;47.90;;;;;;1558853;76;725;-66
2021/12/25 06:43:25;;;;;;;;;;;21.80;47.90;;;;;;1558761;75;1180;-67
2021/12/25 06:45:27;;;;;;;;;;;21.80;47.90;;;;;;1558574;76;716;-64
2021/12/25 06:47:29;;;;;;;;;;;21.80;48.00;;;;;;1558688;76;1948;-66
2021/12/25 06:49:31;;;;;;;;;;;21.80;48.00;;;;;;1560065;76;794;-66
2021/12/25 06:51:34;;;;;;;;;;;21.80;47.90;;;;;;1560279;76;616;-66
2021/12/25 06:53:37;;;;;;;;;;;21.80;47.90;;;;;;1560287;76;1156;-66
2021/12/25 06:55:39;;;;;;;;;;;21.80;47.90;;;;;;1560104;75;774;-65
2021/12/25 06:57:54;;;;;;;;;;;21.80;47.90;;;;;;1560437;76;673;-66
2021/12/25 06:59:50;;;;;;;;;;;21.70;47.90;;;;;;1560170;75;1513;-65
2021/12/25 07:01:52;;;;;;;;;;;21.80;47.90;;;;;;1560141;76;733;-65
2021/12/25 07:03:54;;;;;;;;;;;21.70;47.90;;;;;;1560343;76;1152;-65
2021/12/25 07:05:56;;;;;;;;;;;21.80;47.90;;;;;;1560019;76;719;-66
2021/12/25 07:07:58;;;;;;;;;;;21.80;47.90;;;;;;1560149;75;1958;-65
2021/12/25 07:09:59;;;;;;;;;;;21.80;47.90;;;;;;1560345;76;692;-66
2021/12/25 07:12:01;;;;;;;;;;;21.80;47.90;;;;;;1560217;76;620;-66
2021/12/25 07:14:04;;;;;;;;;;;21.80;47.90;;;;;;1560221;76;1114;-66
2021/12/25 07:16:06;;;;;;;;;;;21.80;47.90;;;;;;1560019;76;771;-66
2021/12/25 07:18:08;;;;;;;;;;;21.80;47.90;;;;;;1560297;76;870;-66
2021/12/25 07:20:10;;;;;;;;;;;21.80;47.80;;;;;;1560333;76;716;-65
2021/12/25 07:22:13;;;;;;;;;;;21.80;47.90;;;;;;1560119;76;735;-66
2021/12/25 07:24:14;;;;;;;;;;;21.70;47.90;;;;;;1560233;76;1158;-66
2021/12/25 07:26:17;;;;;;;;;;;21.80;47.90;;;;;;1560232;76;800;-67
2021/12/25 07:28:19;;;;;;;;;;;21.80;47.80;;;;;;1560081;75;1887;-66
2021/12/25 07:30:21;;;;;;;;;;;21.80;47.90;;;;;;1560382;76;770;-66
2021/12/25 07:32:23;;;;;;;;;;;21.80;47.90;;;;;;1560279;76;715;-66
2021/12/25 07:34:25;;;;;;;;;;;21.70;47.90;;;;;;1560220;76;1129;-66
2021/12/25 07:36:28;;;;;;;;;;;21.80;47.90;;;;;;1560109;76;678;-66
2021/12/25 07:38:30;;;;;;;;;;;21.70;47.90;;;;;;1560202;76;789;-66
2021/12/25 07:40:32;;;;;;;;;;;21.70;47.90;;;;;;1560152;76;771;-66
2021/12/25 07:42:34;;;;;;;;;;;21.70;47.90;;;;;;1560164;76;727;-66
2021/12/25 07:44:36;;;;;;;;;;;21.80;47.90;;;;;;1560214;76;747;-66
2021/12/25 07:46:38;;;;;;;;;;;21.70;47.90;;;;;;1560222;76;1939;-66
2021/12/25 07:48:40;;;;;;;;;;;21.80;47.80;;;;;;1559398;76;727;-66
2021/12/25 07:50:41;;;;;;;;;;;21.80;47.80;;;;;;1558703;76;744;-67
2021/12/25 07:52:43;;;;;;;;;;;21.80;47.90;;;;;;1558528;75;1105;-66
2021/12/25 07:54:45;;;;;;;;;;;21.80;47.90;;;;;;1558803;76;667;-66
2021/12/25 07:56:47;;;;;;;;;;;21.80;47.90;;;;;;1558629;76;784;-66
2021/12/25 07:58:49;;;;;;;;;;;21.70;47.80;;;;;;1558551;76;842;-66
2021/12/25 08:00:51;;;;;;;;;;;21.80;47.80;;;;;;1558778;76;737;-66
2021/12/25 08:02:53;;;;;;;;;;;21.80;47.90;;;;;;1558621;75;1137;-66
2021/12/25 08:04:55;;;;;;;;;;;21.70;47.90;;;;;;1558638;76;781;-67
2021/12/25 08:06:57;;;;;;;;;;;21.70;47.90;;;;;;1558667;76;1954;-66
2021/12/25 08:09:01;;;;;;;;;;;21.80;47.80;;;;;;1558707;76;648;-66
2021/12/25 08:11:03;;;;;;;;;;;21.80;47.90;;;;;;1558768;76;779;-67
2021/12/25 08:13:04;;;;;;;;;;;21.70;47.80;;;;;;1558716;75;1149;-66
2021/12/25 08:15:06;;;;;;;;;;;21.70;47.80;;;;;;1558452;76;783;-66
2021/12/25 08:17:08;;;;;;;;;;;21.80;47.90;;;;;;1558744;76;777;-66
2021/12/25 08:19:10;;;;;;;;;;;21.80;47.80;;;;;;1558616;76;704;-65
2021/12/25 08:21:13;;;;;;;;;;;21.80;47.90;;;;;;1558133;76;994;-66
2021/12/25 08:23:15;;;;;;;;;;;21.80;47.90;;;;;;1558633;75;1121;-66
2021/12/25 08:25:17;;;;;;;;;;;21.80;47.80;;;;;;1558572;76;757;-66
2021/12/25 08:27:19;;;;;;;;;;;21.80;47.80;;;;;;1557986;76;1933;-65
2021/12/25 08:29:23;;;;;;;;;;;21.70;47.90;;;;;;1558733;76;700;-65
2021/12/25 08:31:26;;;;;;;;;;;21.80;47.90;;;;;;1558595;76;1756;-66
2021/12/25 08:33:28;;;;;;;;;;;21.70;47.90;;;;;;1558669;75;1752;-67
2021/12/25 08:35:30;;;;;;;;;;;21.80;47.90;;;;;;1558453;76;755;-66
2021/12/25 08:37:32;;;;;;;;;;;21.80;47.90;;;;;;1558664;76;703;-67
2021/12/25 08:39:34;;;;;;;;;;;21.70;47.90;;;;;;1558715;76;806;-66
2021/12/25 08:41:38;;;;;;;;;;;21.80;47.90;;;;;;1558639;76;739;-66
2021/12/25 08:43:47;;;;;;;;;;;21.80;47.90;;;;;;1558591;75;1208;-66
2021/12/25 08:45:49;;;;;;;;;;;21.80;47.90;;;;;;1558344;76;1559;-66
2021/12/25 08:47:50;;;;;;;;;;;21.80;47.90;;;;;;1558560;76;1919;-66
2021/12/25 08:49:52;;;;;;;;;;;21.70;47.90;;;;;;1558795;76;749;-66
2021/12/25 08:51:53;;;;;;;;;;;21.80;47.90;;;;;;1558759;76;539;-66
2021/12/25 08:53:55;;;;;;;;;;;21.80;47.90;;;;;;1558830;75;1120;-67
2021/12/25 08:55:58;;;;;;;;;;;21.80;47.90;;;;;;1559993;76;797;-66
2021/12/25 08:57:59;;;;;;;;;;;21.70;47.80;;;;;;1560258;76;786;-67
2021/12/25 09:00:01;;;;;;;;;;;21.80;47.80;;;;;;1560275;76;757;-66
2021/12/25 09:02:05;;;;;;;;;;;21.70;47.90;;;;;;1560261;76;711;-66
2021/12/25 09:04:07;;;;;;;;;;;21.70;47.80;;;;;;1560218;76;1156;-66
2021/12/25 09:06:09;;;;;;;;;;;21.80;47.90;;;;;;1560300;76;676;-66
2021/12/25 09:08:10;;;;;;;;;;;21.70;47.90;;;;;;1560188;76;1941;-66
2021/12/25 09:10:12;;;;;;;;;;;21.80;47.90;;;;;;1560365;76;808;-67
2021/12/25 09:12:16;;;;;;;;;;;21.70;47.90;;;;;;1560263;76;706;-66
2021/12/25 09:14:18;;;;;;;;;;;21.80;47.90;;;;;;1560228;76;1129;-66
2021/12/25 09:16:20;;;;;;;;;;;21.70;47.90;;;;;;1560215;76;759;-66
2021/12/25 09:18:22;;;;;;;;;;;21.70;47.90;;;;;;1560195;76;775;-66
2021/12/25 09:20:24;;;;;;;;;;;21.80;47.90;;;;;;1560332;76;731;-66
2021/12/25 09:22:26;;;;;;;;;;;21.70;47.90;;;;;;1560136;75;791;-66
2021/12/25 09:24:27;;;;;;;;;;;21.70;47.90;;;;;;1560329;75;1203;-66
2021/12/25 09:26:29;;;;;;;;;;;21.70;47.90;;;;;;1560330;76;711;-66
2021/12/25 09:28:31;;;;;;;;;;;21.70;47.90;;;;;;1560021;76;1931;-66
2021/12/25 09:30:36;;;;;;;;;;;21.70;47.90;;;;;;1560436;76;732;-66
2021/12/25 09:32:37;;;;;;;;;;;21.70;47.90;;;;;;1560104;75;1464;-66
2021/12/25 09:34:39;;;;;;;;;;;21.70;47.90;;;;;;1560209;76;913;-66
2021/12/25 09:36:41;;;;;;;;;;;21.70;47.90;;;;;;1560287;76;926;-66
2021/12/25 09:38:42;;;;;;;;;;;21.80;47.90;;;;;;1560227;76;639;-66
2021/12/25 09:40:44;;;;;;;;;;;21.70;47.90;;;;;;1560351;76;739;-66
2021/12/25 09:42:46;;;;;;;;;;;21.70;47.90;;;;;;1560364;76;1208;-67
2021/12/25 09:44:48;;;;;;;;;;;21.70;47.90;;;;;;1560122;76;797;-66
2021/12/25 09:46:50;;;;;;;;;;;21.70;47.90;;;;;;1560306;76;719;-66
2021/12/25 09:48:52;;;;;;;;;;;21.80;47.90;;;;;;1560055;76;1891;-66
2021/12/25 09:50:54;;;;;;;;;;;21.70;47.80;;;;;;1560367;76;730;-65
2021/12/25 09:52:57;;;;;;;;;;;21.70;47.90;;;;;;1560227;76;1130;-65
2021/12/25 09:54:59;;;;;;;;;;;21.80;47.90;;;;;;1559295;76;699;-66
2021/12/25 09:57:01;;;;;;;;;;;21.70;47.80;;;;;;1558700;76;778;-66
2021/12/25 09:59:03;;;;;;;;;;;21.70;47.80;;;;;;1558662;76;810;-66
2021/12/25 10:01:05;;;;;;;;;;;21.80;47.80;;;;;;1558718;76;759;-66
2021/12/25 10:03:07;;;;;;;;;;;21.70;47.80;;;;;;1558788;75;1106;-66
2021/12/25 10:05:10;;;;;;;;;;;21.70;47.80;;;;;;1558685;76;704;-66
2021/12/25 10:07:13;;;;;;;;;;;21.70;47.90;;;;;;1558781;76;715;-66
2021/12/25 10:09:16;;;;;;;;;;;21.80;47.90;;;;;;1558624;76;1923;-66
2021/12/25 10:11:18;;;;;;;;;;;21.80;47.80;;;;;;1558222;76;987;-67
2021/12/25 10:13:28;;;;;;;;;;;21.70;47.80;;;;;;1558666;75;1133;-66
2021/12/25 10:15:30;;;;;;;;;;;21.80;47.80;;;;;;1558570;76;795;-66
2021/12/25 10:17:32;;;;;;;;;;;21.70;47.90;;;;;;1558841;76;768;-66
2021/12/25 10:19:34;;;;;;;;;;;21.70;47.80;;;;;;1558746;76;805;-66
2021/12/25 10:21:36;;;;;;;;;;;21.70;47.80;;;;;;1558764;76;709;-66
2021/12/25 10:23:37;;;;;;;;;;;21.70;47.90;;;;;;1558778;75;1125;-66
2021/12/25 10:25:47;;;;;;;;;;;21.70;47.80;;;;;;1558680;76;758;-66
2021/12/25 10:27:49;;;;;;;;;;;21.70;47.80;;;;;;1558702;76;1952;-66
2021/12/25 10:29:53;;;;;;;;;;;21.70;47.80;;;;;;1558683;76;788;-66
2021/12/25 10:31:56;;;;;;;;;;;21.70;47.90;;;;;;1557874;76;1544;-66
2021/12/25 10:33:58;;;;;;;;;;;21.70;47.90;;;;;;1573496;72;3144;-62
2021/12/25 10:36:01;;;;;;;;;;;21.70;47.80;;;;;;1565655;75;791;-63
2021/12/25 10:38:04;;;;;;;;;;;21.70;47.90;;;;;;1586917;75;790;-62
2021/12/25 10:40:08;;;;;;;;;;;21.70;47.90;;;;;;1585920;75;1855;-61
2021/12/25 10:42:13;;;;;;;;;;;21.70;47.90;;;;;;1571411;75;1136;-61
2021/12/25 10:44:15;;;;;;;;;;;21.70;47.80;;;;;;1581169;75;2016;-61
2021/12/25 10:46:17;;;;;;;;;;;21.70;47.90;;;;;;1578133;75;792;-61
2021/12/25 10:48:21;;;;;;;;;;;21.70;47.90;;;;;;1570054;75;1942;-63
2021/12/25 10:50:25;;;;;;;;;;;21.70;47.90;;;;;;1538813;77;1896;-63
2021/12/25 10:52:30;;;;;;;;;;;21.70;47.90;;;;;;1539152;77;1233;-61
2021/12/25 10:54:40;;;;;;;;;;;21.70;47.90;;;;;;1539311;77;1146;-61
2021/12/25 10:56:43;;;;;;;;;;;21.70;47.90;;;;;;1539262;77;702;-61
2021/12/25 10:58:44;;;;;;;;;;;21.70;47.90;;;;;;1539380;77;719;-61
2021/12/25 11:00:54;;;;;;;;;;;21.70;47.90;;;;;;1539557;77;692;-61
2021/12/25 11:03:00;;;;;;;;;;;21.70;47.90;;;;;;1539324;77;713;-61
2021/12/25 11:05:03;;;;;;;;;;;21.70;47.90;;;;;;1539399;77;723;-62
2021/12/25 11:07:13;;;;;;;;;;;21.70;47.90;;;;;;1537870;77;2083;-62
2021/12/25 11:09:15;;;;;;;;;;;21.70;47.90;;;;;;1512783;78;1929;-61
2021/12/25 11:11:17;;;;;;;;;;;21.70;47.90;;;;;;1551699;76;859;-61
2021/12/25 11:13:20;;;;;;;;;;;21.70;48.00;;;;;;1551502;77;1109;-62
2021/12/25 11:15:23;;;;;;;;;;;21.70;47.90;;;;;;1551557;76;795;-63
2021/12/25 11:17:26;;;;;;;;;;;21.70;48.00;;;;;;1551585;77;683;-62
2021/12/25 11:19:34;;;;;;;;;;;21.70;47.90;;;;;;1551571;77;753;-61
2021/12/25 11:21:33;;;;;;;;;;;21.70;47.90;;;;;;1550514;77;1666;-61
2021/12/25 11:23:35;;;;;;;;;;;21.70;47.90;;;;;;1550176;77;1794;-61
2021/12/25 11:25:37;;;;;;;;;;;21.70;48.00;;;;;;1551573;77;739;-62
2021/12/25 11:27:39;;;;;;;;;;;21.70;47.90;;;;;;1551562;77;738;-61
2021/12/25 11:29:41;;;;;;;;;;;21.70;47.90;;;;;;1551534;77;1939;-63
2021/12/25 11:31:43;;;;;;;;;;;21.70;47.90;;;;;;1551579;75;817;-62
2021/12/25 11:33:45;;;;;;;;;;;21.70;47.90;;;;;;1551615;75;1118;-64
2021/12/25 11:35:47;;;;;;;;;;;21.70;47.90;;;;;;1551569;75;630;-61
2021/12/25 11:37:49;;;;;;;;;;;21.70;47.90;;;;;;1551630;77;800;-62
2021/12/25 11:39:53;;;;;;;;;;;21.70;47.90;;;;;;1551577;77;739;-61
2021/12/25 11:41:57;;;;;;;;;;;21.60;47.80;;;;;;1551668;77;856;-62
2021/12/25 11:44:00;;;;;;;;;;;21.70;47.90;;;;;;1551244;77;1722;-61
2021/12/25 11:46:06;;;;;;;;;;;21.70;47.90;;;;;;1551487;77;715;-61
2021/12/25 11:48:13;;;;;;;;;;;21.70;47.90;;;;;;1550945;77;1923;-61
2021/12/25 11:50:21;;;;;;;;;;;21.70;47.90;;;;;;1550282;77;1766;-61
2021/12/25 11:52:27;;;;;;;;;;;21.70;47.90;;;;;;1547359;77;968;-61
2021/12/25 11:57:00;;;;;;;;;;;21.70;47.90;;;;;;1549948;77;865;-62
2021/12/25 11:58:52;;;;;;;;;;;21.70;47.90;;;;;;1546900;76;1641;-61
2021/12/25 12:00:54;;;;;;;;;;;21.70;47.90;;;;;;1550079;76;680;-62
2021/12/25 12:02:56;;;;;;;;;;;21.60;47.80;;;;;;1550175;77;719;-61
2021/12/25 12:04:59;;;;;;;;;;;21.70;47.90;;;;;;1550006;77;671;-62
2021/12/25 12:07:02;;;;;;;;;;;21.70;47.90;;;;;;1549689;77;1416;-63
2021/12/25 12:09:09;;;;;;;;;;;21.70;47.90;;;;;;1549982;77;1920;-61
2021/12/25 12:11:08;;;;;;;;;;;21.70;47.90;;;;;;1549436;77;1713;-62
2021/12/25 12:13:17;;;;;;;;;;;21.70;47.90;;;;;;1521171;78;1116;-62
2021/12/25 12:15:19;;;;;;;;;;;21.70;47.90;;;;;;1550037;77;687;-61
2021/12/25 12:17:22;;;;;;;;;;;21.70;47.90;;;;;;1550107;77;781;-61
2021/12/25 12:19:37;;;;;;;;;;;21.70;47.90;;;;;;1550053;77;704;-62
2021/12/25 12:21:41;;;;;;;;;;;21.70;47.90;;;;;;1550089;76;689;-61
2021/12/25 12:26:00;;;;;;;;;;;21.70;47.90;;;;;;1550163;76;822;-62
2021/12/25 12:27:59;;;;;;;;;;;21.70;47.90;;;;;;1547229;77;1702;-62
2021/12/25 12:30:02;;;;;;;;;;;21.70;47.90;;;;;;1550038;77;1925;-61
2021/12/25 12:32:04;;;;;;;;;;;21.60;47.80;;;;;;1550153;77;696;-61
2021/12/25 12:34:07;;;;;;;;;;;21.70;47.90;;;;;;1550044;77;1122;-61
2021/12/25 12:36:13;;;;;;;;;;;21.70;48.00;;;;;;1549868;77;1474;-62
2021/12/25 12:38:30;;;;;;;;;;;21.70;47.90;;;;;;1548658;77;1909;-61
2021/12/25 12:40:32;;;;;;;;;;;21.80;48.00;;;;;;1550132;77;787;-62
2021/12/25 12:42:50;;;;;;;;;;;21.70;48.00;;;;;;1550248;77;709;-62
2021/12/25 12:44:49;;;;;;;;;;;21.70;48.00;;;;;;1547835;77;1578;-62
2021/12/25 12:46:58;;;;;;;;;;;21.70;48.00;;;;;;1550130;76;724;-63
2021/12/25 12:49:05;;;;;;;;;;;21.70;48.00;;;;;;1544084;77;1915;-61
2021/12/25 12:51:07;;;;;;;;;;;21.70;48.00;;;;;;1540913;77;704;-61
2021/12/25 12:53:09;;;;;;;;;;;21.70;48.00;;;;;;1524153;78;1149;-61
2021/12/25 12:55:11;;;;;;;;;;;21.70;48.00;;;;;;1540783;77;696;-61
2021/12/25 12:57:24;;;;;;;;;;;21.70;48.00;;;;;;1540845;77;848;-60
2021/12/25 12:59:28;;;;;;;;;;;21.70;47.90;;;;;;1538425;77;709;-61
2021/12/25 13:01:29;;;;;;;;;;;21.70;47.90;;;;;;1539248;76;1113;-61
2021/12/25 13:03:31;;;;;;;;;;;21.70;48.00;;;;;;1540840;77;1111;-61
2021/12/25 13:05:34;;;;;;;;;;;21.70;48.00;;;;;;1540844;77;709;-62
2021/12/25 13:07:39;;;;;;;;;;;21.60;47.80;;;;;;1540879;76;662;-61
2021/12/25 13:09:45;;;;;;;;;;;21.70;47.90;;;;;;1540751;76;1916;-61
2021/12/25 13:11:54;;;;;;;;;;;21.60;47.80;;;;;;1540478;77;1997;-64
2021/12/25 13:13:57;;;;;;;;;;;21.70;48.00;;;;;;1540076;77;1486;-61
2021/12/25 13:15:57;;;;;;;;;;;21.60;47.80;;;;;;1540421;76;1683;-61
2021/12/25 13:18:00;;;;;;;;;;;21.70;48.00;;;;;;1540858;77;696;-62
2021/12/25 13:20:02;;;;;;;;;;;21.70;47.90;;;;;;1540889;77;726;-62
2021/12/25 13:22:06;;;;;;;;;;;21.60;47.90;;;;;;1540810;77;649;-62